Terminal Aerodrome Forecast
Issued by NWS

Current Version | Previous Version | Text Only | Print | Product List | Glossary Off
Versions: 1 2 3 4 5 6 7 8 9 10 11 12 13 14 15 16 17 18 19 20 21 22 23 24 25 26

000
FTUS41 KILN 192300
TAFLUK
TAF
KLUK 192332Z 2000/2024 11004KT P6SM SCT250
     FM200400 00000KT 4SM BR SCT250
     FM201000 18005KT P6SM BKN050
      TEMPO 2010/2012 3SM BR
     FM201400 22010KT P6SM BKN050
     FM201600 21010G18KT P6SM SCT050=

USA.gov is the U.S. government's official web portal to all federal, state and local government web resources and services.